createdAt,value
2023-01-20T00:01:43.254Z,-0.84
2023-01-20T00:04:12.749Z,-0.87
2023-01-20T00:06:42.594Z,-0.86
2023-01-20T00:09:14.658Z,-0.85
2023-01-20T00:11:41.403Z,-0.90
2023-01-20T00:14:10.509Z,-0.89
2023-01-20T00:16:37.090Z,-0.89
2023-01-20T00:19:03.650Z,-0.90
2023-01-20T00:21:30.344Z,-0.89
2023-01-20T00:23:56.872Z,-0.91
2023-01-20T00:26:25.439Z,-0.93
2023-01-20T00:28:57.514Z,-0.95
2023-01-20T00:31:24.293Z,-0.96
2023-01-20T00:33:55.336Z,-0.95
2023-01-20T00:36:25.406Z,-0.97
2023-01-20T00:38:52.467Z,-0.95
2023-01-20T00:41:19.799Z,-0.97
2023-01-20T00:43:46.590Z,-1.00
2023-01-20T00:46:13.849Z,-0.97
2023-01-20T00:48:40.804Z,-0.96
2023-01-20T00:51:08.882Z,-0.97
2023-01-20T00:53:35.551Z,-0.96
2023-01-20T00:56:02.304Z,-0.98
2023-01-20T00:58:28.977Z,-0.99
2023-01-20T01:00:56.144Z,-1.00
2023-01-20T01:03:22.884Z,-1.01
2023-01-20T01:05:49.877Z,-1.00
2023-01-20T01:08:16.494Z,-1.00
2023-01-20T01:10:42.972Z,-1.01
2023-01-20T01:13:12.538Z,-1.02
2023-01-20T01:15:39.167Z,-1.05
2023-01-20T01:18:05.743Z,-1.08
2023-01-20T01:20:32.503Z,-1.09
2023-01-20T01:22:59.024Z,-1.11
2023-01-20T01:25:25.766Z,-1.13
2023-01-20T01:27:52.384Z,-1.15
2023-01-20T01:30:19.168Z,-1.16
2023-01-20T01:32:45.648Z,-1.19
2023-01-20T01:35:12.683Z,-1.19
2023-01-20T01:37:41.775Z,-1.24
2023-01-20T01:40:09.426Z,-1.26
2023-01-20T01:42:36.260Z,-1.28
2023-01-20T01:45:12.037Z,-1.30
2023-01-20T01:47:46.640Z,-1.30
2023-01-20T01:50:19.145Z,-1.31
2023-01-20T01:52:50.155Z,-1.34
2023-01-20T01:55:19.104Z,-1.39
2023-01-20T01:57:47.570Z,-1.41
2023-01-20T02:00:14.515Z,-1.42
2023-01-20T02:02:43.764Z,-1.43
2023-01-20T02:05:13.848Z,-1.43
2023-01-20T02:07:44.092Z,-1.43
2023-01-20T02:10:11.551Z,-1.44
2023-01-20T02:12:39.113Z,-1.44
2023-01-20T02:15:06.393Z,-1.44
2023-01-20T02:17:40.086Z,-1.43
2023-01-20T02:20:24.882Z,-1.43
2023-01-20T02:23:12.718Z,-1.42
2023-01-20T02:26:07.357Z,-1.44
2023-01-20T02:28:37.094Z,-1.45
2023-01-20T02:31:14.806Z,-1.45
2023-01-20T02:33:57.843Z,-1.44
2023-01-20T02:36:34.777Z,-1.44
2023-01-20T02:39:13.712Z,-1.45
2023-01-20T02:42:23.420Z,-1.45
2023-01-20T02:44:55.714Z,-1.44
2023-01-20T02:47:35.722Z,-1.44
2023-01-20T02:50:14.310Z,-1.44
2023-01-20T02:52:46.075Z,-1.44
2023-01-20T02:55:22.509Z,-1.44
2023-01-20T02:58:00.827Z,-1.42
2023-01-20T03:00:34.487Z,-1.42
2023-01-20T03:03:06.066Z,-1.40
2023-01-20T03:05:37.840Z,-1.37
2023-01-20T03:08:08.820Z,-1.35
2023-01-20T03:10:37.686Z,-1.33
2023-01-20T03:13:32.629Z,-1.31
2023-01-20T03:16:13.799Z,-1.31
2023-01-20T03:18:40.590Z,-1.33
2023-01-20T03:21:10.084Z,-1.31
2023-01-20T03:23:42.890Z,-1.30
2023-01-20T03:26:13.477Z,-1.30
2023-01-20T03:28:50.636Z,-1.28
2023-01-20T03:31:29.905Z,-1.27
2023-01-20T03:33:59.939Z,-1.26
2023-01-20T03:36:29.856Z,-1.25
2023-01-20T03:38:58.529Z,-1.23
2023-01-20T03:41:32.658Z,-1.23
2023-01-20T03:44:21.469Z,-1.22
2023-01-20T03:47:11.983Z,-1.24
2023-01-20T03:49:51.711Z,-1.24
2023-01-20T03:52:47.617Z,-1.24
2023-01-20T03:55:26.629Z,-1.24
2023-01-20T03:58:04.753Z,-1.26
2023-01-20T04:00:37.665Z,-1.25
2023-01-20T04:03:14.063Z,-1.26
2023-01-20T04:05:43.093Z,-1.25
2023-01-20T04:08:12.330Z,-1.24
2023-01-20T04:10:42.781Z,-1.24
2023-01-20T04:13:09.753Z,-1.26
2023-01-20T04:15:40.406Z,-1.25
2023-01-20T04:18:18.292Z,-1.25
2023-01-20T04:20:53.499Z,-1.24
2023-01-20T04:23:34.847Z,-1.21
2023-01-20T04:26:03.952Z,-1.19
2023-01-20T04:28:31.470Z,-1.17
2023-01-20T04:30:58.190Z,-1.15
2023-01-20T04:33:25.100Z,-1.14
2023-01-20T04:35:51.538Z,-1.13
2023-01-20T04:38:17.967Z,-1.13
2023-01-20T04:40:45.214Z,-1.10
2023-01-20T04:43:12.513Z,-1.08
2023-01-20T04:45:41.325Z,-1.05
2023-01-20T04:48:08.807Z,-1.02
2023-01-20T04:50:40.453Z,-1.02
2023-01-20T04:53:09.240Z,-1.02
2023-01-20T04:55:35.755Z,-1.02
2023-01-20T04:58:02.556Z,-1.00
2023-01-20T05:00:29.058Z,-1.00
2023-01-20T05:02:59.057Z,-0.98
2023-01-20T05:05:25.699Z,-0.98
2023-01-20T05:07:53.567Z,-0.97
2023-01-20T05:10:20.917Z,-0.97
2023-01-20T05:12:47.816Z,-0.96
2023-01-20T05:15:15.016Z,-0.96
2023-01-20T05:17:42.358Z,-0.97
2023-01-20T05:20:10.052Z,-0.98
2023-01-20T05:22:36.620Z,-0.97
2023-01-20T05:25:03.151Z,-0.95
2023-01-20T05:27:30.435Z,-0.95
2023-01-20T05:29:56.911Z,-0.93
2023-01-20T05:32:23.767Z,-0.91
2023-01-20T05:34:50.413Z,-0.91
2023-01-20T05:37:18.392Z,-0.89
2023-01-20T05:39:45.120Z,-0.87
2023-01-20T05:42:11.612Z,-0.86
2023-01-20T05:44:38.122Z,-0.84
2023-01-20T05:47:05.111Z,-0.83
2023-01-20T05:49:31.667Z,-0.82
2023-01-20T05:51:58.145Z,-0.83
2023-01-20T05:54:26.218Z,-0.81
2023-01-20T05:56:53.013Z,-0.79
2023-01-20T05:59:19.888Z,-0.80
2023-01-20T06:01:46.395Z,-0.79
2023-01-20T06:04:15.139Z,-0.79
2023-01-20T06:06:42.293Z,-0.79
2023-01-20T06:09:10.901Z,-0.78
2023-01-20T06:11:37.351Z,-0.77
2023-01-20T06:14:04.217Z,-0.77
2023-01-20T06:16:30.870Z,-0.76
2023-01-20T06:18:57.644Z,-0.74
2023-01-20T06:21:24.982Z,-0.72
2023-01-20T06:23:53.476Z,-0.71
2023-01-20T06:26:20.390Z,-0.71
2023-01-20T06:28:46.875Z,-0.72
2023-01-20T06:31:16.238Z,-0.73
2023-01-20T06:33:43.526Z,-0.71
2023-01-20T06:36:14.703Z,-0.70
2023-01-20T06:38:41.463Z,-0.69
2023-01-20T06:41:15.233Z,-0.70
2023-01-20T06:43:42.110Z,-0.72
2023-01-20T06:46:11.250Z,-0.74
2023-01-20T06:48:37.837Z,-0.75
2023-01-20T06:51:07.375Z,-0.73
2023-01-20T06:53:34.952Z,-0.73
2023-01-20T06:56:02.479Z,-0.72
2023-01-20T06:58:31.094Z,-0.71
2023-01-20T07:00:59.261Z,-0.70
2023-01-20T07:03:26.000Z,-0.71
2023-01-20T07:06:01.477Z,-0.70
2023-01-20T07:08:28.979Z,-0.69
2023-01-20T07:10:56.074Z,-0.69
2023-01-20T07:13:22.959Z,-0.70
2023-01-20T07:15:49.849Z,-0.68
2023-01-20T07:18:17.093Z,-0.67
2023-01-20T07:20:44.188Z,-0.67
2023-01-20T07:23:10.854Z,-0.68
2023-01-20T07:25:38.504Z,-0.70
2023-01-20T07:28:05.603Z,-0.70
2023-01-20T07:30:32.370Z,-0.69
2023-01-20T07:32:58.843Z,-0.67
2023-01-20T07:35:25.602Z,-0.66
2023-01-20T07:37:52.560Z,-0.66
2023-01-20T07:40:22.667Z,-0.64
2023-01-20T07:42:50.089Z,-0.63
2023-01-20T07:45:16.989Z,-0.62
2023-01-20T07:47:51.240Z,-0.62
2023-01-20T07:50:25.657Z,-0.61
2023-01-20T07:52:56.301Z,-0.60
2023-01-20T07:55:25.010Z,-0.62
2023-01-20T07:57:56.237Z,-0.60
2023-01-20T08:00:22.911Z,-0.60
2023-01-20T08:02:52.484Z,-0.61
2023-01-20T08:05:19.036Z,-0.61
2023-01-20T08:07:50.307Z,-0.60
2023-01-20T08:10:17.075Z,-0.59
2023-01-20T08:12:43.664Z,-0.55
2023-01-20T08:15:10.948Z,-0.53
2023-01-20T08:17:37.578Z,-0.53
2023-01-20T08:20:04.733Z,-0.52
2023-01-20T08:22:31.160Z,-0.53
2023-01-20T08:24:57.623Z,-0.49
2023-01-20T08:27:24.128Z,-0.48
2023-01-20T08:29:50.732Z,-0.47
2023-01-20T08:32:17.218Z,-0.44
2023-01-20T08:34:43.671Z,-0.44
2023-01-20T08:37:10.239Z,-0.42
2023-01-20T08:39:36.826Z,-0.40
2023-01-20T08:42:03.472Z,-0.39
2023-01-20T08:44:30.241Z,-0.38
2023-01-20T08:46:59.472Z,-0.36
2023-01-20T08:49:26.127Z,-0.36
2023-01-20T08:51:52.661Z,-0.34
2023-01-20T08:54:19.829Z,-0.30
2023-01-20T08:56:50.810Z,-0.28
2023-01-20T08:59:17.937Z,-0.27
2023-01-20T09:01:45.581Z,-0.26
2023-01-20T09:04:12.678Z,-0.25
2023-01-20T09:06:57.194Z,-0.24
2023-01-20T09:09:23.884Z,-0.25
2023-01-20T09:11:53.680Z,-0.26
2023-01-20T09:14:22.548Z,-0.24
2023-01-20T09:16:49.626Z,-0.22
2023-01-20T09:19:16.501Z,-0.21
2023-01-20T09:21:44.382Z,-0.18
2023-01-20T09:24:11.160Z,-0.16
2023-01-20T09:26:40.240Z,-0.19
2023-01-20T09:29:12.855Z,-0.15
2023-01-20T09:31:54.073Z,-0.14
2023-01-20T09:34:24.918Z,-0.09
2023-01-20T09:37:18.554Z,-0.04
2023-01-20T09:40:04.746Z,-0.02
2023-01-20T09:43:23.820Z,0.03
2023-01-20T09:45:59.571Z,0.07
2023-01-20T09:49:19.774Z,0.08
2023-01-20T09:52:19.926Z,0.11
2023-01-20T09:55:17.126Z,0.14
2023-01-20T09:57:53.463Z,0.16
2023-01-20T10:00:23.867Z,0.20
2023-01-20T10:02:55.649Z,0.24
2023-01-20T10:05:32.960Z,0.27
2023-01-20T10:08:10.648Z,0.30
2023-01-20T10:10:45.778Z,0.32
2023-01-20T10:13:18.266Z,0.33
2023-01-20T10:15:52.750Z,0.34
2023-01-20T10:18:35.041Z,0.38
2023-01-20T10:21:11.328Z,0.42
2023-01-20T10:23:52.831Z,0.49
2023-01-20T10:26:28.865Z,0.54
2023-01-20T10:29:01.519Z,0.55
2023-01-20T10:31:33.676Z,0.56
2023-01-20T10:34:08.940Z,0.59
2023-01-20T10:36:35.689Z,0.64
2023-01-20T10:39:10.246Z,0.68
2023-01-20T10:41:45.506Z,0.73
2023-01-20T10:44:14.444Z,0.77
2023-01-20T10:47:16.872Z,0.81
2023-01-20T10:50:02.483Z,0.84
2023-01-20T10:52:46.612Z,0.92
2023-01-20T10:55:47.665Z,0.98
2023-01-20T10:58:18.345Z,1.04
2023-01-20T11:00:45.230Z,1.11
2023-01-20T11:03:17.826Z,1.17
2023-01-20T11:05:46.727Z,1.20
2023-01-20T11:08:29.691Z,1.26
2023-01-20T11:11:09.312Z,1.31
2023-01-20T11:13:35.825Z,1.37
2023-01-20T11:16:36.984Z,1.42
2023-01-20T11:19:07.495Z,1.45
2023-01-20T11:21:36.979Z,1.48
2023-01-20T11:24:34.796Z,1.52
2023-01-20T11:27:14.485Z,1.57
2023-01-20T11:29:46.165Z,1.62
2023-01-20T11:32:37.107Z,1.66
2023-01-20T11:35:24.621Z,1.68
2023-01-20T11:37:51.742Z,1.76
2023-01-20T11:40:19.986Z,1.79
2023-01-20T11:42:48.409Z,1.82
2023-01-20T11:45:25.697Z,1.87
2023-01-20T11:48:16.878Z,1.90
2023-01-20T11:50:56.121Z,1.90
2023-01-20T11:53:31.631Z,1.88
2023-01-20T11:56:00.297Z,1.86
2023-01-20T11:58:48.131Z,1.85
2023-01-20T12:01:23.509Z,1.87
2023-01-20T12:03:59.973Z,1.86
2023-01-20T12:06:30.913Z,1.82
2023-01-20T12:09:10.250Z,1.81
2023-01-20T12:11:42.878Z,1.81
2023-01-20T12:14:22.922Z,1.79
2023-01-20T12:17:05.334Z,1.76
2023-01-20T12:19:53.783Z,1.73
2023-01-20T12:22:34.599Z,1.73
2023-01-20T12:25:14.568Z,1.75
2023-01-20T12:27:46.604Z,1.78
2023-01-20T12:30:43.424Z,1.79
2023-01-20T12:33:26.004Z,1.84
2023-01-20T12:36:24.822Z,1.87
2023-01-20T12:39:25.498Z,1.92
2023-01-20T12:42:10.325Z,1.95
2023-01-20T12:44:48.475Z,1.95
2023-01-20T12:47:45.126Z,1.95
2023-01-20T12:50:29.615Z,1.93
2023-01-20T12:53:42.495Z,1.93
2023-01-20T12:56:27.703Z,1.90
2023-01-20T12:59:20.717Z,1.89
2023-01-20T13:01:57.707Z,1.88
2023-01-20T13:04:33.422Z,1.88
2023-01-20T13:07:00.190Z,1.86
2023-01-20T13:09:36.869Z,1.86
2023-01-20T13:12:30.877Z,1.85
2023-01-20T13:15:19.087Z,1.82
2023-01-20T13:18:04.464Z,1.82
2023-01-20T13:20:31.087Z,1.82
2023-01-20T13:23:03.347Z,1.82
2023-01-20T13:25:30.955Z,1.81
2023-01-20T13:27:58.060Z,1.83
2023-01-20T13:30:50.753Z,1.83
2023-01-20T13:33:32.956Z,1.81
2023-01-20T13:36:20.602Z,1.82
2023-01-20T13:38:49.309Z,1.80
2023-01-20T13:41:52.954Z,1.80
2023-01-20T13:44:35.629Z,1.82
2023-01-20T13:47:03.273Z,1.80
2023-01-20T13:49:53.646Z,1.79
2023-01-20T13:53:03.028Z,1.78
2023-01-20T13:55:41.617Z,1.77
2023-01-20T13:58:28.564Z,1.79
2023-01-20T14:01:03.916Z,1.77
2023-01-20T14:03:35.101Z,1.78
2023-01-20T14:06:01.684Z,1.77
2023-01-20T14:08:52.697Z,1.76
2023-01-20T14:11:24.557Z,1.75
2023-01-20T14:13:54.154Z,1.77
2023-01-20T14:16:26.646Z,1.73
2023-01-20T14:18:55.627Z,1.73
2023-01-20T14:21:25.178Z,1.70
2023-01-20T14:23:52.404Z,1.69
2023-01-20T14:26:30.211Z,1.68
2023-01-20T14:29:03.023Z,1.68
2023-01-20T14:31:33.182Z,1.67
2023-01-20T14:34:18.866Z,1.65
2023-01-20T14:36:46.534Z,1.64
2023-01-20T14:39:22.641Z,1.63
2023-01-20T14:41:52.389Z,1.62
2023-01-20T14:44:25.269Z,1.60
2023-01-20T14:46:54.153Z,1.60
2023-01-20T14:49:24.129Z,1.59
2023-01-20T14:51:51.751Z,1.57
2023-01-20T14:54:34.622Z,1.57
2023-01-20T14:57:24.947Z,1.57
2023-01-20T15:00:22.607Z,1.55
2023-01-20T15:03:09.998Z,1.54
2023-01-20T15:05:42.525Z,1.52
2023-01-20T15:08:12.209Z,1.50
2023-01-20T15:10:39.265Z,1.49
2023-01-20T15:13:23.140Z,1.50
2023-01-20T15:15:49.887Z,1.48
2023-01-20T15:18:21.613Z,1.48
2023-01-20T15:20:49.951Z,1.47
2023-01-20T15:23:19.617Z,1.46
2023-01-20T15:25:46.914Z,1.45
2023-01-20T15:28:27.237Z,1.43
2023-01-20T15:30:55.948Z,1.42
2023-01-20T15:33:23.958Z,1.41
2023-01-20T15:35:54.374Z,1.40
2023-01-20T15:38:21.453Z,1.39
2023-01-20T15:40:48.063Z,1.36
2023-01-20T15:43:16.622Z,1.36
2023-01-20T15:45:43.739Z,1.35
2023-01-20T15:48:16.534Z,1.33
2023-01-20T15:50:43.424Z,1.31
2023-01-20T15:53:12.653Z,1.30
2023-01-20T15:55:48.610Z,1.30
2023-01-20T15:58:30.994Z,1.30
2023-01-20T16:00:58.389Z,1.29
2023-01-20T16:03:26.280Z,1.29
2023-01-20T16:05:55.024Z,1.29
2023-01-20T16:08:24.929Z,1.30
2023-01-20T16:10:51.392Z,1.29
2023-01-20T16:13:17.886Z,1.28
2023-01-20T16:15:44.677Z,1.28
2023-01-20T16:18:17.403Z,1.26
2023-01-20T16:20:45.826Z,1.26
2023-01-20T16:23:13.372Z,1.25
2023-01-20T16:25:40.449Z,1.23
2023-01-20T16:28:13.462Z,1.22
2023-01-20T16:30:41.467Z,1.22
2023-01-20T16:33:20.220Z,1.21
2023-01-20T16:35:47.540Z,1.19
2023-01-20T16:38:16.315Z,1.18
2023-01-20T16:40:53.609Z,1.17
2023-01-20T16:43:21.666Z,1.15
2023-01-20T16:45:54.136Z,1.15
2023-01-20T16:48:25.916Z,1.15
2023-01-20T16:50:52.868Z,1.13
2023-01-20T16:53:20.177Z,1.12
2023-01-20T16:55:48.094Z,1.12
2023-01-20T16:58:16.330Z,1.12
2023-01-20T17:00:43.318Z,1.11
2023-01-20T17:03:12.504Z,1.08
2023-01-20T17:05:39.213Z,1.09
2023-01-20T17:08:05.769Z,1.07
2023-01-20T17:10:32.827Z,1.05
2023-01-20T17:13:02.604Z,1.05
2023-01-20T17:15:29.308Z,1.03
2023-01-20T17:17:58.369Z,1.02
2023-01-20T17:20:30.836Z,1.01
2023-01-20T17:22:57.377Z,1.01
2023-01-20T17:25:24.795Z,1.01
2023-01-20T17:27:51.292Z,1.02
2023-01-20T17:30:18.199Z,1.01
2023-01-20T17:32:48.710Z,0.99
2023-01-20T17:35:16.045Z,0.98
2023-01-20T17:37:42.944Z,0.97
2023-01-20T17:40:11.263Z,0.96
2023-01-20T17:42:37.999Z,0.96
2023-01-20T17:45:05.127Z,0.96
2023-01-20T17:47:31.690Z,0.94
2023-01-20T17:49:58.537Z,0.95
2023-01-20T17:52:25.399Z,0.93
2023-01-20T17:54:51.888Z,0.93
2023-01-20T17:57:18.630Z,0.93
2023-01-20T17:59:46.180Z,0.92
2023-01-20T18:02:13.925Z,0.92
2023-01-20T18:04:40.390Z,0.91
2023-01-20T18:07:07.257Z,0.91
2023-01-20T18:09:33.831Z,0.91
2023-01-20T18:12:00.318Z,0.91
2023-01-20T18:14:26.913Z,0.91
2023-01-20T18:16:54.523Z,0.90
2023-01-20T18:19:21.357Z,0.90
2023-01-20T18:21:47.915Z,0.90
2023-01-20T18:24:14.887Z,0.90
2023-01-20T18:26:45.127Z,0.90
2023-01-20T18:29:16.607Z,0.90
2023-01-20T18:31:44.976Z,0.89
2023-01-20T18:34:15.619Z,0.88
2023-01-20T18:36:46.848Z,0.88
2023-01-20T18:39:18.267Z,0.88
2023-01-20T18:41:46.353Z,0.88
2023-01-20T18:44:12.896Z,0.88
2023-01-20T18:46:40.128Z,0.88
2023-01-20T18:49:09.590Z,0.87
2023-01-20T18:51:36.438Z,0.87
2023-01-20T18:54:07.526Z,0.88
2023-01-20T18:56:34.648Z,0.87
2023-01-20T18:59:01.435Z,0.87
2023-01-20T19:01:46.251Z,0.86
2023-01-20T19:04:13.620Z,0.86
2023-01-20T19:06:42.533Z,0.85
2023-01-20T19:09:10.450Z,0.84
2023-01-20T19:11:39.729Z,0.84
2023-01-20T19:14:08.767Z,0.83
2023-01-20T19:16:42.306Z,0.83
2023-01-20T19:19:10.813Z,0.82
2023-01-20T19:21:37.458Z,0.83
2023-01-20T19:24:06.056Z,0.82
2023-01-20T19:26:35.539Z,0.82
2023-01-20T19:29:08.429Z,0.83
2023-01-20T19:31:38.594Z,0.83
2023-01-20T19:34:06.967Z,0.82
2023-01-20T19:36:34.546Z,0.83
2023-01-20T19:39:01.379Z,0.83
2023-01-20T19:41:35.853Z,0.82
2023-01-20T19:44:06.479Z,0.83
2023-01-20T19:46:35.383Z,0.83
2023-01-20T19:49:02.769Z,0.82
2023-01-20T19:51:31.275Z,0.85
2023-01-20T19:54:00.704Z,0.83
2023-01-20T19:56:30.420Z,0.84
2023-01-20T19:58:58.017Z,0.84
2023-01-20T20:01:30.510Z,0.84
2023-01-20T20:03:58.723Z,0.84
2023-01-20T20:06:32.600Z,0.85
2023-01-20T20:09:01.774Z,0.84
2023-01-20T20:11:29.670Z,0.84
2023-01-20T20:13:59.016Z,0.85
2023-01-20T20:16:27.687Z,0.86
2023-01-20T20:18:55.658Z,0.85
2023-01-20T20:21:25.635Z,0.85
2023-01-20T20:23:54.085Z,0.88
2023-01-20T20:26:22.695Z,0.88
2023-01-20T20:28:51.080Z,0.84
2023-01-20T20:31:18.453Z,0.81
2023-01-20T20:33:48.783Z,0.78
2023-01-20T20:36:15.748Z,0.79
2023-01-20T20:38:42.543Z,0.79
2023-01-20T20:41:09.714Z,0.79
2023-01-20T20:43:37.238Z,0.80
2023-01-20T20:46:06.770Z,0.81
2023-01-20T20:48:33.910Z,0.81
2023-01-20T20:51:10.948Z,0.82
2023-01-20T20:53:37.493Z,0.82
2023-01-20T20:56:15.767Z,0.83
2023-01-20T20:58:59.803Z,0.83
2023-01-20T21:01:28.698Z,0.84
2023-01-20T21:03:57.465Z,0.83
2023-01-20T21:06:24.593Z,0.84
2023-01-20T21:08:51.148Z,0.85
2023-01-20T21:11:18.603Z,0.85
2023-01-20T21:13:45.199Z,0.85
2023-01-20T21:16:16.668Z,0.86
2023-01-20T21:18:43.468Z,0.85
2023-01-20T21:21:13.012Z,0.88
2023-01-20T21:23:43.645Z,0.86
2023-01-20T21:26:13.518Z,0.88
2023-01-20T21:28:40.624Z,0.90
2023-01-20T21:31:07.715Z,0.90
2023-01-20T21:33:36.210Z,0.90
2023-01-20T21:36:05.030Z,0.90
2023-01-20T21:38:32.182Z,0.89
2023-01-20T21:41:04.681Z,0.89
2023-01-20T21:43:58.689Z,0.89
2023-01-20T21:46:28.250Z,0.89
2023-01-20T21:49:14.601Z,0.90
2023-01-20T21:52:00.009Z,0.89
2023-01-20T21:54:30.874Z,0.86
2023-01-20T21:56:58.636Z,0.86
2023-01-20T21:59:25.651Z,0.85
2023-01-20T22:01:52.752Z,0.83
2023-01-20T22:04:19.941Z,0.82
2023-01-20T22:06:46.518Z,0.81
2023-01-20T22:09:13.614Z,0.80
2023-01-20T22:11:40.464Z,0.79
2023-01-20T22:14:07.018Z,0.79
2023-01-20T22:16:34.009Z,0.77
2023-01-20T22:19:00.597Z,0.73
2023-01-20T22:21:27.161Z,0.71
2023-01-20T22:23:53.974Z,0.67
2023-01-20T22:26:20.527Z,0.66
2023-01-20T22:28:47.006Z,0.62
2023-01-20T22:31:19.841Z,0.59
2023-01-20T22:33:51.733Z,0.56
2023-01-20T22:36:19.706Z,0.52
2023-01-20T22:38:46.599Z,0.48
2023-01-20T22:41:15.247Z,0.47
2023-01-20T22:43:44.389Z,0.44
2023-01-20T22:46:13.705Z,0.43
2023-01-20T22:48:40.972Z,0.42
2023-01-20T22:51:11.656Z,0.41
2023-01-20T22:53:39.295Z,0.39
2023-01-20T22:56:17.305Z,0.37
2023-01-20T22:58:44.959Z,0.38
2023-01-20T23:01:22.543Z,0.39
2023-01-20T23:03:53.943Z,0.38
2023-01-20T23:06:20.707Z,0.38
2023-01-20T23:08:47.312Z,0.37
2023-01-20T23:11:16.366Z,0.37
2023-01-20T23:13:43.366Z,0.37
2023-01-20T23:16:17.496Z,0.38
2023-01-20T23:18:45.934Z,0.40
2023-01-20T23:21:13.708Z,0.39
2023-01-20T23:23:40.367Z,0.38
2023-01-20T23:26:09.381Z,0.38
2023-01-20T23:28:36.058Z,0.37
2023-01-20T23:31:05.175Z,0.37
2023-01-20T23:33:32.710Z,0.38
2023-01-20T23:36:06.783Z,0.39
2023-01-20T23:38:33.919Z,0.38
2023-01-20T23:41:00.433Z,0.39
2023-01-20T23:43:26.874Z,0.38
2023-01-20T23:45:57.423Z,0.40
2023-01-20T23:48:25.287Z,0.41
2023-01-20T23:50:51.826Z,0.40
2023-01-20T23:53:18.663Z,0.42
2023-01-20T23:55:45.354Z,0.43
2023-01-20T23:58:11.977Z,0.44
